Time;durP1;ratioP1;P1;durP2;ratioP2;P2;SDS_P1;SDS_P2;PMS_P1;PMS_P2;Temp;Humidity;BMP_temperature;BMP_pressure;BME280_temperature;BME280_humidity;BME280_pressure;Samples;Min_cycle;Max_cycle;Signal;HPM_P1;HPM_P2
2022/06/03 00:02:42;;;;;;;10.55;6.35;;;;;;;11.70;76.41;101499.28;5001121;28;20077;-54
2022/06/03 00:05:39;;;;;;;13.55;7.70;;;;;;;11.71;76.94;101499.22;5012724;28;20068;-52
2022/06/03 00:08:43;;;;;;;12.30;6.75;;;;;;;11.65;77.04;101499.50;5022440;28;20060;-55
2022/06/03 00:11:18;;;;;;;12.88;6.32;;;;;;;11.61;78.77;101500.56;5018690;28;20434;-53
2022/06/03 00:14:20;;;;;;;11.88;6.63;;;;;;;11.55;78.39;101503.53;5017322;28;20454;-54
2022/06/03 00:17:11;;;;;;;12.30;6.10;;;;;;;11.51;78.45;101497.53;5028387;28;20049;-54
2022/06/03 00:19:56;;;;;;;10.55;6.80;;;;;;;11.53;78.29;101497.50;5025742;28;20068;-54
2022/06/03 00:22:35;;;;;;;11.60;5.88;;;;;;;11.51;78.42;101497.53;5026721;28;20264;-54
2022/06/03 00:25:08;;;;;;;10.75;6.72;;;;;;;11.48;79.25;101497.69;5022792;28;20053;-55
2022/06/03 00:27:45;;;;;;;10.52;6.72;;;;;;;11.45;79.25;101497.00;5019670;28;20185;-50
2022/06/03 00:30:37;;;;;;;9.85;6.05;;;;;;;11.40;79.87;101495.44;5020933;28;20145;-52
2022/06/03 00:33:22;;;;;;;10.73;6.47;;;;;;;11.34;80.58;101495.72;5022017;28;20807;-48
2022/06/03 00:36:27;;;;;;;10.65;6.30;;;;;;;11.27;80.44;101490.84;5015262;28;20056;-53
2022/06/03 00:39:03;;;;;;;10.45;6.40;;;;;;;11.24;81.40;101490.97;5018563;28;20065;-52
2022/06/03 00:41:40;;;;;;;12.13;7.55;;;;;;;11.23;81.01;101486.63;5038006;28;20489;-51
2022/06/03 00:44:30;;;;;;;11.00;6.63;;;;;;;11.20;81.64;101489.41;5021458;28;20053;-48
2022/06/03 00:47:23;;;;;;;10.65;6.80;;;;;;;11.13;81.30;101476.53;5018257;28;20406;-50
2022/06/03 00:50:09;;;;;;;10.40;7.55;;;;;;;11.10;82.44;101481.09;5031951;28;20056;-51
2022/06/03 00:52:51;;;;;;;10.05;7.00;;;;;;;11.07;82.93;101483.84;5022577;28;20556;-54
2022/06/03 00:55:31;;;;;;;18.45;8.00;;;;;;;11.03;83.09;101479.66;5020963;28;20331;-52
2022/06/03 00:58:30;;;;;;;10.02;6.15;;;;;;;11.00;83.33;101483.31;5040376;28;20069;-52
2022/06/03 01:01:03;;;;;;;9.40;6.68;;;;;;;10.97;83.78;101485.22;5021908;28;20065;-50
2022/06/03 01:04:16;;;;;;;10.13;7.03;;;;;;;10.94;84.10;101485.34;5018297;28;20054;-50
2022/06/03 01:06:55;;;;;;;12.60;6.53;;;;;;;10.91;83.57;101486.38;5015508;28;20054;-52
2022/06/03 01:09:40;;;;;;;10.48;6.70;;;;;;;10.93;83.27;101484.50;5025227;28;20555;-55
2022/06/03 01:12:30;;;;;;;10.00;6.25;;;;;;;10.95;82.84;101487.94;5019948;28;20068;-51
2022/06/03 01:15:19;;;;;;;12.10;6.50;;;;;;;10.94;83.80;101485.34;5019511;28;20057;-51
2022/06/03 01:17:52;;;;;;;11.57;6.80;;;;;;;10.91;83.66;101489.00;5021918;28;20054;-51
2022/06/03 01:20:38;;;;;;;9.32;6.13;;;;;;;10.86;83.45;101483.09;5017654;28;20053;-51
2022/06/03 01:23:24;;;;;;;11.43;6.72;;;;;;;10.84;83.49;101490.19;5020799;28;22264;-51
2022/06/03 01:26:08;;;;;;;10.82;7.25;;;;;;;10.82;83.91;101482.38;5014935;28;20056;-53
2022/06/03 01:29:09;;;;;;;10.80;7.25;;;;;;;10.81;84.03;101485.09;5018171;28;20053;-53
2022/06/03 01:32:20;;;;;;;8.95;6.28;;;;;;;10.78;84.33;101490.50;5008520;28;20115;-48
2022/06/03 01:34:58;;;;;;;12.30;7.03;;;;;;;10.74;84.37;101487.13;5015174;28;20050;-51
2022/06/03 01:37:31;;;;;;;10.13;7.05;;;;;;;10.74;84.74;101483.66;5021445;28;20053;-51
2022/06/03 01:40:14;;;;;;;12.52;7.57;;;;;;;10.75;85.59;101485.34;5010884;28;20065;-51
2022/06/03 01:43:06;;;;;;;12.48;7.05;;;;;;;10.72;85.56;101483.75;5018250;28;20057;-53
2022/06/03 01:45:55;;;;;;;11.73;7.57;;;;;;;10.71;85.25;101484.63;5024040;28;20057;-51
2022/06/03 01:48:48;;;;;;;9.63;6.70;;;;;;;10.70;85.07;101482.94;5021153;28;20056;-52
2022/06/03 01:51:34;;;;;;;11.00;7.13;;;;;;;10.68;85.19;101489.22;5018818;28;20556;-52
2022/06/03 01:54:36;;;;;;;9.55;6.70;;;;;;;10.65;85.66;101490.19;5022066;28;20505;-48
2022/06/03 01:57:38;;;;;;;11.43;7.65;;;;;;;10.63;85.96;101487.63;5026339;28;20064;-49
2022/06/03 02:00:24;;;;;;;14.98;7.60;;;;;;;10.60;86.01;101477.25;5037665;28;20048;-50
2022/06/03 02:03:13;;;;;;;12.10;7.00;;;;;;;10.59;86.08;101477.31;5023673;28;20046;-49
2022/06/03 02:05:56;;;;;;;11.63;6.97;;;;;;;10.62;85.81;101479.78;5017794;28;20524;-49
2022/06/03 02:08:57;;;;;;;10.73;6.75;;;;;;;10.59;85.93;101480.81;5028371;28;20073;-51
2022/06/03 02:12:14;;;;;;;14.77;7.30;;;;;;;10.59;86.37;101472.91;5025871;28;20076;-51
2022/06/03 02:15:19;;;;;;;10.43;7.57;;;;;;;10.55;86.24;101473.13;5022013;28;20053;-50
2022/06/03 02:18:09;;;;;;;12.88;7.32;;;;;;;10.54;87.45;101481.94;5021805;28;20102;-49
2022/06/03 02:21:05;;;;;;;10.25;6.80;;;;;;;10.49;87.12;101476.88;4996353;28;20065;-49
2022/06/03 02:24:03;;;;;;;13.38;7.85;;;;;;;10.46;86.95;101477.00;5021659;28;20053;-52
2022/06/03 02:26:50;;;;;;;12.65;7.55;;;;;;;10.44;87.81;101483.25;5032226;22;20378;-83
2022/06/03 02:33:16;;;;;;;12.27;7.80;;;;;;;10.35;89.12;101477.47;5022867;28;20077;-80
2022/06/03 02:36:06;;;;;;;11.50;7.95;;;;;;;10.34;89.16;101482.81;5041682;28;20159;-81
2022/06/03 02:38:57;;;;;;;14.98;8.27;;;;;;;10.28;89.26;101481.31;5006043;28;20058;-80
2022/06/03 02:41:28;;;;;;;17.80;8.23;;;;;;;10.27;89.82;101484.03;5001968;28;20180;-79
2022/06/03 02:44:32;;;;;;;13.27;7.38;;;;;;;10.24;89.26;101482.38;5021552;28;20421;-79
2022/06/03 02:47:27;;;;;;;13.88;7.82;;;;;;;10.28;89.56;101483.09;5014705;28;20029;-80
2022/06/03 02:50:16;;;;;;;12.73;8.27;;;;;;;10.32;89.54;101476.78;5029219;28;20114;-81
2022/06/03 02:53:39;;;;;;;17.33;8.45;;;;;;;10.36;88.92;101475.72;5024811;28;20540;-82
2022/06/03 02:56:32;;;;;;;19.40;7.97;;;;;;;10.38;89.11;101479.97;4999451;28;20409;-82
2022/06/03 02:59:17;;;;;;;14.15;7.45;;;;;;;10.35;89.15;101472.22;5020041;28;20042;-80
2022/06/03 03:02:17;;;;;;;13.35;8.30;;;;;;;10.36;89.38;101471.31;5011262;28;20057;-79
2022/06/03 03:05:05;;;;;;;13.57;8.35;;;;;;;10.36;88.94;101467.81;5035617;28;20061;-81
2022/06/03 03:07:46;;;;;;;17.23;9.27;;;;;;;10.41;88.88;101462.34;5016849;28;20058;-81
2022/06/03 03:10:18;;;;;;;15.80;8.77;;;;;;;10.42;88.90;101470.16;5011078;28;20113;-82
2022/06/03 03:13:05;;;;;;;14.75;7.88;;;;;;;10.42;89.20;101467.53;5026404;28;20536;-83
2022/06/03 03:15:49;;;;;;;15.90;7.78;;;;;;;10.44;88.63;101467.47;5007480;28;20076;-82
2022/06/03 03:18:39;;;;;;;16.58;8.40;;;;;;;10.47;88.71;101473.44;5019336;28;20552;-81
2022/06/03 03:21:28;;;;;;;18.83;8.70;;;;;;;10.49;88.70;101482.16;5027185;28;20645;-80
2022/06/03 03:24:07;;;;;;;19.80;8.38;;;;;;;10.51;88.84;101484.69;5014733;28;20537;-80
2022/06/03 03:26:54;;;;;;;22.10;9.27;;;;;;;10.50;88.96;101485.63;4999933;28;20862;-80
2022/06/03 03:29:50;;;;;;;19.40;7.85;;;;;;;10.49;89.51;101484.78;5012209;28;20049;-80
2022/06/03 03:32:23;;;;;;;18.38;8.32;;;;;;;10.48;89.88;101485.69;5017177;28;20537;-82
2022/06/03 03:35:09;;;;;;;16.35;8.40;;;;;;;10.51;89.70;101484.69;5033804;28;20149;-81
2022/06/03 03:37:58;;;;;;;16.75;9.05;;;;;;;10.52;90.34;101483.78;5027202;28;20152;-80
2022/06/03 03:40:48;;;;;;;15.93;7.85;;;;;;;10.52;89.95;101481.13;5020151;28;20062;-81
2022/06/03 03:43:43;;;;;;;13.60;7.60;;;;;;;10.57;89.79;101489.69;5031159;28;20045;-81
2022/06/03 03:46:48;;;;;;;14.85;8.00;;;;;;;10.61;89.83;101483.34;4997600;28;20037;-80
2022/06/03 03:49:49;;;;;;;16.90;8.18;;;;;;;10.67;89.54;101487.47;5018275;28;20462;-81
2022/06/03 03:52:47;;;;;;;17.45;8.25;;;;;;;10.68;89.48;101484.81;5025326;28;20121;-81
2022/06/03 03:55:55;;;;;;;13.98;8.00;;;;;;;10.74;88.89;101488.94;5029255;28;20063;-82
2022/06/03 03:58:44;;;;;;;10.07;7.30;;;;;;;10.80;88.85;101489.47;5025747;28;20046;-82
2022/06/03 04:01:20;;;;;;;9.05;6.80;;;;;;;10.87;88.45;101493.56;5013914;28;20125;-81
2022/06/03 04:03:50;;;;;;;;;;;;;;;10.93;87.81;101495.03;5025476;28;20605;-81
2022/06/03 04:09:48;;;;;;;11.05;6.80;;;;;;;11.03;87.62;101493.72;5034705;28;20080;-82
2022/06/03 04:12:28;;;;;;;12.13;7.20;;;;;;;11.10;87.21;101497.75;5036590;28;20056;-80
2022/06/03 04:15:02;;;;;;;11.55;7.32;;;;;;;11.16;86.81;101491.31;5032519;28;20058;-82
2022/06/03 04:17:54;;;;;;;8.25;6.35;;;;;;;11.23;86.47;101495.38;5018171;28;20643;-82
2022/06/03 04:20:42;;;;;;;9.75;7.10;;;;;;;11.31;86.44;101500.31;5018101;28;20986;-81
2022/06/03 04:23:28;;;;;;;10.93;7.30;;;;;;;11.38;85.73;101501.69;5022965;28;20055;-81
2022/06/03 04:25:55;;;;;;;;;;;;;;;11.47;85.24;101505.69;5028125;28;20113;-81
2022/06/03 04:28:55;;;;;;;15.65;8.15;;;;;;;11.54;84.93;101502.69;5056280;22;20427;-55
2022/06/03 04:32:04;;;;;;;13.48;8.35;;;;;;;11.63;84.48;101496.09;5040539;28;20064;-54
2022/06/03 04:35:03;;;;;;;11.25;7.15;;;;;;;11.73;84.11;101504.41;5023662;28;20060;-56
2022/06/03 04:38:01;;;;;;;14.60;7.10;;;;;;;11.81;83.75;101503.09;5042981;28;20636;-57
2022/06/03 04:41:02;;;;;;;11.13;7.10;;;;;;;11.89;83.35;101492.19;5043280;28;20041;-59
2022/06/03 04:43:47;;;;;;;9.73;7.95;;;;;;;11.98;82.87;101502.28;5034387;28;20061;-55
2022/06/03 04:46:47;;;;;;;10.18;7.40;;;;;;;12.06;83.35;101501.88;5036959;28;20052;-56
2022/06/03 04:49:24;;;;;;;10.23;7.20;;;;;;;12.15;82.43;101507.53;5024507;28;20068;-54
2022/06/03 04:52:04;;;;;;;24.65;9.02;;;;;;;12.24;82.39;101500.91;5039316;28;20060;-57
2022/06/03 04:54:50;;;;;;;11.40;6.50;;;;;;;12.33;82.01;101510.16;5027200;28;20532;-55
2022/06/03 04:57:41;;;;;;;11.90;6.85;;;;;;;12.45;81.64;101511.31;5045563;28;20049;-59
2022/06/03 05:00:08;;;;;;;14.85;7.05;;;;;;;12.54;80.76;101510.81;5041495;28;20071;-54
2022/06/03 05:02:51;;;;;;;10.70;6.95;;;;;;;12.66;80.60;101512.81;5039715;28;20060;-57
2022/06/03 05:06:01;;;;;;;9.55;6.32;;;;;;;12.77;79.71;101514.88;5039163;28;20045;-52
2022/06/03 05:08:59;;;;;;;9.82;6.93;;;;;;;12.89;78.87;101519.50;5039306;28;20057;-60
2022/06/03 05:12:01;;;;;;;15.07;7.25;;;;;;;12.98;78.07;101507.59;5042207;28;20128;-53
2022/06/03 05:14:38;;;;;;;9.77;6.18;;;;;;;13.05;76.78;101507.13;5039979;28;20053;-56
2022/06/03 05:17:17;;;;;;;6.88;5.15;;;;;;;13.14;75.85;101506.63;5023448;28;20049;-54
2022/06/03 05:19:56;;;;;;;8.82;4.90;;;;;;;13.29;75.98;101520.00;5043089;28;20068;-63
2022/06/03 05:22:36;;;;;;;6.32;4.63;;;;;;;13.43;74.25;101514.78;5046775;28;20057;-56
2022/06/03 05:25:41;;;;;;;6.55;4.15;;;;;;;13.53;72.80;101515.94;5024423;28;20053;-56
2022/06/03 05:28:40;;;;;;;9.57;4.05;;;;;;;13.65;71.83;101520.53;5042126;28;20049;-55
2022/06/03 05:31:38;;;;;;;6.63;4.40;;;;;;;13.75;71.12;101517.38;5029798;28;20528;-55
2022/06/03 05:34:23;;;;;;;6.90;4.25;;;;;;;13.86;70.51;101514.94;5040182;28;20151;-56
2022/06/03 05:36:56;;;;;;;5.43;3.72;;;;;;;14.00;70.01;101522.91;5041746;28;20053;-54
2022/06/03 05:39:42;;;;;;;5.85;3.35;;;;;;;14.11;69.27;101523.16;5025341;28;20069;-55
2022/06/03 05:42:37;;;;;;;11.82;3.72;;;;;;;14.17;68.01;101522.78;5016741;28;20072;-57
2022/06/03 05:45:35;;;;;;;7.70;2.92;;;;;;;14.30;67.54;101522.03;5026499;28;20351;-56
2022/06/03 05:48:42;;;;;;;4.95;3.00;;;;;;;14.41;66.80;101514.31;5032973;28;20532;-57
2022/06/03 05:51:52;;;;;;;5.13;3.30;;;;;;;14.57;67.26;101516.91;5044274;28;20045;-58
2022/06/03 05:54:32;;;;;;;4.63;2.72;;;;;;;14.71;66.53;101513.38;5025792;28;20072;-56
2022/06/03 05:57:14;;;;;;;7.38;2.45;;;;;;;14.79;65.03;101513.78;5027591;28;20068;-56
2022/06/03 06:00:09;;;;;;;3.72;2.88;;;;;;;14.91;64.43;101513.84;5022680;28;20052;-57
2022/06/03 06:02:42;;;;;;;3.22;2.70;;;;;;;14.97;63.07;101515.25;5036270;28;20121;-55
2022/06/03 06:05:27;;;;;;;5.10;2.33;;;;;;;15.04;63.24;101505.97;5023821;28;20052;-57
2022/06/03 06:08:23;;;;;;;2.80;2.15;;;;;;;15.18;63.00;101508.59;5042172;28;20059;-55
2022/06/03 06:11:07;;;;;;;3.90;2.30;;;;;;;15.25;61.71;101503.75;5024520;28;20060;-55
2022/06/03 06:13:51;;;;;;;4.90;2.20;;;;;;;15.37;60.91;101502.94;5042645;28;20056;-53
2022/06/03 06:16:29;;;;;;;3.80;2.33;;;;;;;15.49;60.57;101503.97;5031417;28;20061;-54
2022/06/03 06:19:05;;;;;;;3.40;2.08;;;;;;;15.63;60.15;101509.22;5025180;28;20063;-57
2022/06/03 06:22:09;;;;;;;3.88;2.20;;;;;;;15.75;59.47;101501.41;5036430;28;20065;-56
2022/06/03 06:24:54;;;;;;;4.82;1.65;;;;;;;15.85;59.25;101494.53;5022500;28;20053;-53
2022/06/03 06:27:57;;;;;;;2.65;2.20;;;;;;;15.94;58.13;101496.59;5024212;28;20053;-58
2022/06/03 06:30:52;;;;;;;4.57;2.20;;;;;;;16.04;58.35;101497.66;5041209;28;20075;-58
2022/06/03 06:33:36;;;;;;;3.00;1.88;;;;;;;16.15;57.80;101491.59;5039283;28;20045;-57
2022/06/03 06:36:23;;;;;;;3.65;1.73;;;;;;;16.30;57.87;101481.72;5035507;28;20053;-52
2022/06/03 06:39:09;;;;;;;3.47;1.77;;;;;;;16.43;57.47;101477.25;5045180;28;20087;-59
2022/06/03 06:41:51;;;;;;;2.35;1.55;;;;;;;16.55;57.28;101473.72;5027774;28;20135;-56
2022/06/03 06:44:24;;;;;;;4.72;2.05;;;;;;;16.70;56.67;101479.75;5041381;28;20049;-56
2022/06/03 06:46:58;;;;;;;4.95;1.70;;;;;;;16.84;56.01;101477.03;5040663;28;20057;-53
2022/06/03 06:49:43;;;;;;;4.15;2.00;;;;;;;16.92;55.49;101474.66;5043596;28;20368;-57
2022/06/03 06:52:15;;;;;;;2.47;1.50;;;;;;;17.00;55.22;101482.06;5022515;28;20154;-56
2022/06/03 06:55:18;;;;;;;3.85;1.73;;;;;;;17.09;54.15;101481.41;5046819;28;20048;-56
2022/06/03 06:57:51;;;;;;;3.22;2.17;;;;;;;17.20;54.41;101481.50;5026276;28;20168;-55
2022/06/03 07:00:24;;;;;;;6.97;2.10;;;;;;;17.31;54.53;101479.84;5038896;28;20071;-56
2022/06/03 07:03:11;;;;;;;3.97;1.85;;;;;;;17.41;53.99;101481.69;5040419;28;20127;-57
2022/06/03 07:05:40;;;;;;;;;;;;;;;17.48;52.92;101484.78;5042204;28;20412;-57
2022/06/03 07:08:26;;;;;;;3.25;1.60;;;;;;;17.60;52.90;101486.50;5045444;28;20364;-56
2022/06/03 07:11:12;;;;;;;3.13;1.58;;;;;;;17.71;52.80;101477.72;5023974;28;20716;-58
2022/06/03 07:13:45;;;;;;;2.03;1.42;;;;;;;17.82;52.66;101468.94;5030847;28;20068;-56
2022/06/03 07:19:52;;;;;;;3.75;2.08;;;;;;;17.94;51.96;101473.34;5043062;28;20064;-55
2022/06/03 07:22:31;;;;;;;3.25;1.70;;;;;;;18.03;50.72;101469.13;5030997;28;20068;-55
2022/06/03 07:25:32;;;;;;;3.45;1.67;;;;;;;18.10;50.35;101468.56;5050826;28;20053;-56
2022/06/03 07:28:09;;;;;;;3.92;1.80;;;;;;;18.16;49.91;101460.06;5043732;28;20061;-56
2022/06/03 07:30:41;;;;;;;4.03;1.60;;;;;;;18.23;49.68;101455.09;5022972;28;20052;-55
2022/06/03 07:33:32;;;;;;;5.78;1.65;;;;;;;18.33;49.50;101461.44;5026713;28;20045;-54
2022/06/03 07:36:21;;;;;;;4.38;1.80;;;;;;;18.41;49.34;101466.13;5027140;28;20049;-58
2022/06/03 07:38:57;;;;;;;1.98;1.52;;;;;;;18.42;48.80;101465.19;5046470;28;20044;-55
2022/06/03 07:41:31;;;;;;;1.95;1.35;;;;;;;18.51;49.30;101464.47;5029845;28;20063;-53
2022/06/03 07:44:06;;;;;;;2.80;1.40;;;;;;;18.68;48.75;101463.94;5027998;28;20418;-54
2022/06/03 07:46:41;;;;;;;2.28;1.35;;;;;;;18.78;46.63;101457.91;5029693;28;20085;-55
2022/06/03 07:49:08;;;;;;;2.75;1.15;;;;;;;18.65;45.25;101456.22;5023491;28;20053;-57
2022/06/03 07:51:47;;;;;;;3.70;1.60;;;;;;;18.64;45.55;101456.31;5028739;28;20132;-57
2022/06/03 07:54:32;;;;;;;4.07;1.45;;;;;;;18.71;45.69;101453.06;5025041;28;20140;-56
2022/06/03 07:57:04;;;;;;;4.63;1.58;;;;;;;18.77;45.78;101449.06;5023816;28;20528;-53
2022/06/03 07:59:34;;;;;;;4.68;1.83;;;;;;;18.93;45.99;101454.03;5044308;28;20061;-54
2022/06/03 08:02:14;;;;;;;5.10;1.00;;;;;;;19.06;44.58;101446.72;5042294;28;20049;-55
2022/06/03 08:04:42;;;;;;;3.22;1.50;;;;;;;19.13;44.62;101445.22;5042922;28;20876;-57
2022/06/03 08:13:15;;;;;;;2.92;1.38;;;;;;;19.40;44.12;101444.78;5028980;28;20050;-57
2022/06/03 08:15:53;;;;;;;2.05;1.50;;;;;;;19.40;44.66;101441.25;5037215;28;20429;-56
2022/06/03 08:18:22;;;;;;;3.45;1.20;;;;;;;19.48;43.93;101431.63;5022959;28;20045;-58
2022/06/03 08:20:59;;;;;;;3.20;1.40;;;;;;;19.62;44.29;101427.00;5038719;28;20057;-57
2022/06/03 08:23:30;;;;;;;2.42;1.15;;;;;;;19.76;43.64;101439.19;5024008;28;20432;-58
2022/06/03 08:26:04;;;;;;;2.60;1.33;;;;;;;19.89;44.00;101439.81;5034292;28;20739;-55
2022/06/03 08:28:33;;;;;;;2.38;1.27;;;;;;;20.00;43.62;101434.44;5023689;28;20059;-55
2022/06/03 08:31:03;;;;;;;2.20;1.25;;;;;;;20.11;43.56;101436.16;5057310;22;20044;-54
2022/06/03 08:33:47;;;;;;;2.47;1.30;;;;;;;20.20;42.30;101443.38;5043760;28;20497;-55
2022/06/03 08:36:19;;;;;;;3.78;1.80;;;;;;;20.29;41.46;101439.91;5036661;28;20053;-56
2022/06/03 08:38:56;;;;;;;2.30;1.70;;;;;;;20.30;41.24;101430.06;5045198;28;20057;-54
2022/06/03 08:42:01;;;;;;;5.15;1.52;;;;;;;20.32;40.55;101434.31;5024754;28;20045;-55
2022/06/03 08:44:29;;;;;;;2.40;1.35;;;;;;;20.36;41.45;101437.56;5026981;28;20079;-52
2022/06/03 08:47:07;;;;;;;3.63;1.77;;;;;;;20.46;41.59;101447.31;5028539;28;20052;-54
2022/06/03 08:49:56;;;;;;;2.65;1.27;;;;;;;20.59;41.03;101446.28;5031953;28;20076;-56
2022/06/03 08:52:34;;;;;;;5.05;1.35;;;;;;;20.74;40.77;101437.72;5026168;28;20058;-52
2022/06/03 08:55:08;;;;;;;3.53;1.38;;;;;;;20.74;40.40;101439.56;5026641;28;20057;-55
2022/06/03 08:57:44;;;;;;;2.17;1.35;;;;;;;20.80;40.96;101440.84;5029330;28;20057;-53
2022/06/03 09:00:21;;;;;;;2.65;1.50;;;;;;;20.78;39.39;101429.44;5028478;28;20053;-53
2022/06/03 09:02:54;;;;;;;1.98;1.40;;;;;;;20.72;39.34;101434.34;5030443;28;20489;-54
2022/06/03 09:05:25;;;;;;;2.53;1.40;;;;;;;20.86;39.76;101418.91;5039933;28;20056;-58
2022/06/03 09:08:10;;;;;;;1.65;1.40;;;;;;;20.93;40.11;101420.00;5033509;28;20049;-55
2022/06/03 09:10:42;;;;;;;3.58;1.30;;;;;;;21.10;40.10;101416.66;5026580;28;20045;-53
2022/06/03 09:13:21;;;;;;;2.55;1.77;;;;;;;21.26;39.76;101418.81;5037663;28;20068;-54
2022/06/03 09:15:49;;;;;;;4.25;1.55;;;;;;;21.33;38.63;101417.28;5035373;28;20485;-52
2022/06/03 09:18:25;;;;;;;2.58;1.30;;;;;;;21.42;39.02;101411.06;5024016;28;21646;-57
2022/06/03 09:20:59;;;;;;;5.13;1.40;;;;;;;21.53;38.11;101415.44;5030386;28;20052;-54
2022/06/03 09:23:27;;;;;;;1.95;1.42;;;;;;;21.56;38.12;101411.63;5032577;28;20062;-57
2022/06/03 09:25:57;;;;;;;2.10;1.30;;;;;;;21.61;37.92;101415.56;5028366;28;20053;-52
2022/06/03 09:28:31;;;;;;;2.40;1.48;;;;;;;21.71;38.25;101410.22;5028020;28;20492;-56
2022/06/03 09:31:00;;;;;;;2.53;1.40;;;;;;;21.82;37.99;101406.50;5026527;28;20460;-53
2022/06/03 09:33:29;;;;;;;1.80;1.27;;;;;;;21.79;37.68;101401.44;5032735;28;20056;-53
2022/06/03 09:35:58;;;;;;;3.80;1.25;;;;;;;21.45;37.61;101401.91;5025145;28;20064;-55
2022/06/03 09:38:28;;;;;;;1.98;1.48;;;;;;;21.62;38.65;101400.34;5021705;28;20042;-52
2022/06/03 09:40:59;;;;;;;1.98;1.30;;;;;;;21.85;38.51;101396.34;5034752;28;20061;-56
2022/06/03 09:43:31;;;;;;;3.50;1.30;;;;;;;21.88;36.90;101389.84;5022746;28;20064;-52
2022/06/03 09:45:59;;;;;;;3.28;1.30;;;;;;;21.96;36.00;101395.31;5030385;28;20053;-52
2022/06/03 09:48:33;;;;;;;2.65;1.50;;;;;;;22.11;36.03;101391.19;5034530;28;20121;-55
2022/06/03 09:51:08;;;;;;;1.40;1.30;;;;;;;22.26;36.09;101380.84;5030781;28;20084;-54
2022/06/03 09:53:40;;;;;;;2.17;1.38;;;;;;;22.39;36.70;101386.72;5025879;28;20778;-52
2022/06/03 09:56:15;;;;;;;2.20;1.27;;;;;;;22.45;35.17;101382.59;5024890;28;20049;-53
2022/06/03 09:58:43;;;;;;;1.70;1.20;;;;;;;22.33;35.23;101379.25;5027081;28;20053;-52
2022/06/03 10:01:11;;;;;;;2.22;1.38;;;;;;;22.30;35.11;101378.72;5025944;28;20053;-50
2022/06/03 10:03:38;;;;;;;2.90;1.27;;;;;;;22.20;34.46;101374.25;5033691;28;20144;-52
2022/06/03 10:06:42;;;;;;;3.38;1.58;;;;;;;22.16;35.11;101367.50;5025554;28;20061;-53
2022/06/03 10:14:24;;;;;;;;;;;;;;;22.59;35.27;101360.63;5028429;28;20048;-53
2022/06/03 10:16:51;;;;;;;2.22;1.35;;;;;;;22.56;34.47;101370.81;5025666;28;19936;-54
2022/06/03 10:19:18;;;;;;;2.20;1.20;;;;;;;22.49;34.12;101363.38;5026731;28;20525;-51
2022/06/03 10:21:55;;;;;;;2.50;1.25;;;;;;;22.63;35.33;101363.84;5025219;28;20058;-54
2022/06/03 10:24:30;;;;;;;1.85;1.52;;;;;;;22.86;36.29;101351.69;5024836;28;20041;-55
2022/06/03 10:26:58;;;;;;;;;;;;;;;22.97;35.54;101350.66;5027795;28;20048;-52
2022/06/03 10:29:25;;;;;;;3.50;1.35;;;;;;;23.17;35.73;101354.00;5021775;28;19928;-55
2022/06/03 10:31:55;;;;;;;1.75;1.15;;;;;;;23.34;34.78;101355.00;5022626;28;20041;-54
2022/06/03 10:34:35;;;;;;;1.35;1.13;;;;;;;23.47;34.72;101356.28;5030575;28;20048;-57
2022/06/03 10:37:06;;;;;;;2.97;1.20;;;;;;;23.44;34.25;101353.06;5025047;28;20068;-52
2022/06/03 10:39:34;;;;;;;3.90;1.73;;;;;;;23.56;34.96;101361.72;5020094;28;20049;-53
2022/06/03 10:42:01;;;;;;;1.80;1.00;;;;;;;23.68;35.04;101358.63;5027424;28;20048;-54
2022/06/03 10:44:33;;;;;;;2.10;1.30;;;;;;;23.73;34.17;101350.97;5027226;28;20529;-56
2022/06/03 10:47:06;;;;;;;3.70;1.58;;;;;;;23.72;34.17;101345.72;5023877;28;20067;-53
2022/06/03 10:49:38;;;;;;;2.00;1.48;;;;;;;23.81;34.11;101349.31;5031402;28;20049;-53
2022/06/03 11:03:31;;;;;;;1.60;1.20;;;;;;;24.42;32.55;101329.44;5021800;28;20050;-56
2022/06/03 11:06:14;;;;;;;3.22;1.20;;;;;;;24.46;32.13;101328.94;5021624;28;20093;-53
2022/06/03 11:08:52;;;;;;;5.28;1.50;;;;;;;24.50;32.75;101324.94;5021066;28;20405;-50
2022/06/03 11:11:51;;;;;;;2.03;1.48;;;;;;;24.73;33.46;101324.31;5019323;28;20148;-55
2022/06/03 11:14:36;;;;;;;4.70;1.30;;;;;;;24.68;31.20;101326.66;5019443;28;20045;-53
2022/06/03 11:17:03;;;;;;;1.95;0.90;;;;;;;24.52;30.76;101313.16;5021675;28;20042;-51
2022/06/03 11:19:47;;;;;;;4.30;1.75;;;;;;;24.63;31.13;101311.00;5018399;28;20063;-54
2022/06/03 11:22:27;;;;;;;1.48;1.05;;;;;;;24.75;31.52;101306.97;5022678;28;20057;-55
2022/06/03 11:25:03;;;;;;;2.17;0.90;;;;;;;24.95;31.85;101301.28;5027231;28;20083;-54
2022/06/03 11:27:44;;;;;;;5.72;1.50;;;;;;;25.12;32.66;101302.97;5027553;28;20049;-52
2022/06/03 11:30:19;;;;;;;2.20;1.40;;;;;;;25.34;32.18;101290.66;5020610;28;20049;-51
2022/06/03 11:32:47;;;;;;;;;;;;;;;25.57;32.22;101292.63;5022092;28;20057;-54
2022/06/03 11:35:20;;;;;;;1.40;1.30;;;;;;;25.68;31.63;101279.63;5032983;28;19927;-54
2022/06/03 11:37:52;;;;;;;1.42;0.95;;;;;;;25.69;30.81;101284.00;5022678;28;20421;-53
2022/06/03 11:40:26;;;;;;;1.67;1.08;;;;;;;25.45;30.70;101281.38;5021358;28;20235;-52
2022/06/03 11:42:58;;;;;;;2.87;1.10;;;;;;;25.45;29.62;101268.75;5021407;28;20096;-58
2022/06/03 11:45:40;;;;;;;3.97;1.25;;;;;;;25.55;30.37;101270.41;5043744;28;20050;-54
2022/06/03 11:48:16;;;;;;;2.67;1.00;;;;;;;25.75;29.44;101271.69;5030169;28;20529;-52
2022/06/03 11:50:43;;;;;;;1.73;1.35;;;;;;;25.85;29.02;101261.59;5022789;28;20049;-52
2022/06/03 11:53:10;;;;;;;4.00;1.00;;;;;;;25.88;28.91;101258.50;5025710;28;20051;-53
2022/06/03 11:55:38;;;;;;;3.22;1.25;;;;;;;26.09;29.54;101249.00;5022434;28;20053;-55
2022/06/03 11:58:15;;;;;;;1.10;1.00;;;;;;;26.21;28.83;101244.88;5021915;28;21020;-55
2022/06/03 12:00:47;;;;;;;1.95;1.20;;;;;;;26.25;28.21;101247.06;5013551;28;20083;-52
2022/06/03 12:03:38;;;;;;;1.73;1.00;;;;;;;26.31;28.06;101236.56;5026705;28;20049;-54
2022/06/03 12:06:10;;;;;;;1.75;1.20;;;;;;;26.45;28.90;101249.31;5024616;28;20079;-53
2022/06/03 12:09:09;;;;;;;2.50;1.30;;;;;;;26.50;27.61;101234.25;5021292;28;20057;-55
2022/06/03 12:14:45;;;;;;;2.60;1.20;;;;;;;26.57;28.02;101239.78;5008163;28;20061;-54
2022/06/03 12:17:12;;;;;;;1.45;1.20;;;;;;;26.86;27.60;101230.91;5009553;28;20463;-54
2022/06/03 12:19:43;;;;;;;1.88;1.48;;;;;;;27.06;27.98;101225.81;5005702;28;20081;-53
2022/06/03 12:22:15;;;;;;;1.55;1.10;;;;;;;27.20;27.20;101227.78;5004182;28;20053;-50
2022/06/03 12:24:59;;;;;;;1.95;1.13;;;;;;;27.26;26.98;101218.06;5043472;28;20907;-55
2022/06/03 12:27:36;;;;;;;1.52;1.23;;;;;;;27.47;26.96;101217.34;5024511;28;20060;-54
2022/06/03 12:30:18;;;;;;;3.08;1.10;;;;;;;27.57;26.03;101220.59;5019391;28;20141;-54
2022/06/03 12:32:52;;;;;;;3.05;1.10;;;;;;;27.69;26.53;101211.00;5015160;28;20063;-50
2022/06/03 12:35:42;;;;;;;3.83;1.20;;;;;;;27.71;26.09;101199.97;5004972;28;20060;-53
2022/06/03 12:38:21;;;;;;;2.67;1.20;;;;;;;27.83;26.83;101200.34;5024851;28;20051;-56
2022/06/03 12:40:51;;;;;;;4.47;1.00;;;;;;;28.06;26.65;101192.94;5032849;28;20061;-53
2022/06/03 12:43:46;;;;;;;1.42;1.05;;;;;;;28.25;26.21;101197.72;5025567;28;20517;-57
2022/06/03 12:46:42;;;;;;;2.20;1.38;;;;;;;28.49;26.41;101187.56;5022325;28;20049;-52
2022/06/03 12:49:31;;;;;;;2.90;1.30;;;;;;;28.65;25.95;101175.63;5021397;28;20041;-54
2022/06/03 12:52:07;;;;;;;2.15;1.10;;;;;;;28.91;26.42;101174.97;5035410;28;20061;-51
2022/06/03 12:54:46;;;;;;;1.70;1.30;;;;;;;29.10;26.34;101171.59;5028475;28;20082;-53
2022/06/03 12:57:37;;;;;;;2.25;1.13;;;;;;;29.11;25.50;101169.72;5023360;28;20068;-54
2022/06/03 13:00:07;;;;;;;1.42;1.00;;;;;;;29.22;25.46;101163.72;5021790;28;20057;-54
2022/06/03 13:02:37;;;;;;;1.70;1.17;;;;;;;29.40;25.39;101171.34;5032601;28;20049;-53
2022/06/03 13:05:11;;;;;;;1.38;1.00;;;;;;;29.55;25.17;101152.22;5023559;28;20057;-55
2022/06/03 13:08:05;;;;;;;3.50;1.17;;;;;;;29.82;25.34;101150.50;5020733;28;20061;-55
2022/06/03 13:10:54;;;;;;;4.40;1.13;;;;;;;29.95;24.77;101145.94;5021685;28;20505;-55
2022/06/03 13:13:29;;;;;;;2.95;1.33;;;;;;;30.05;24.38;101139.25;5025242;28;20064;-53